sensor_id;sensor_type;location;lat;lon;timestamp;pressure;altitude;pressure_sealevel;temperature;humidity
49943;BME280;36011;53.362;58.948;2023-04-26T00:01:23;97560.50;;;9.47;48.24
49943;BME280;36011;53.362;58.948;2023-04-26T00:04:30;97558.25;;;9.39;48.49
49943;BME280;36011;53.362;58.948;2023-04-26T00:07:33;97560.59;;;9.46;48.73
49943;BME280;36011;53.362;58.948;2023-04-26T00:10:40;97563.06;;;9.49;48.44
49943;BME280;36011;53.362;58.948;2023-04-26T00:13:44;97571.47;;;9.38;48.79
49943;BME280;36011;53.362;58.948;2023-04-26T00:16:49;97554.09;;;9.35;48.77
49943;BME280;36011;53.362;58.948;2023-04-26T00:19:53;97549.78;;;9.34;48.92
49943;BME280;36011;53.362;58.948;2023-04-26T00:23:00;97561.97;;;9.35;48.87
49943;BME280;36011;53.362;58.948;2023-04-26T00:26:05;97564.91;;;9.47;49.30
49943;BME280;36011;53.362;58.948;2023-04-26T00:29:09;97562.50;;;9.42;49.21
49943;BME280;36011;53.362;58.948;2023-04-26T00:32:13;97569.22;;;9.30;48.81
49943;BME280;36011;53.362;58.948;2023-04-26T00:35:18;97565.22;;;9.40;49.51
49943;BME280;36011;53.362;58.948;2023-04-26T00:38:23;97554.41;;;9.47;49.39
49943;BME280;36011;53.362;58.948;2023-04-26T00:41:29;97556.41;;;9.41;49.59
49943;BME280;36011;53.362;58.948;2023-04-26T00:44:33;97550.31;;;9.41;49.64
49943;BME280;36011;53.362;58.948;2023-04-26T00:47:39;97548.63;;;9.40;49.60
49943;BME280;36011;53.362;58.948;2023-04-26T00:50:44;97547.00;;;9.55;49.50
49943;BME280;36011;53.362;58.948;2023-04-26T00:53:52;97545.75;;;9.44;49.70
49943;BME280;36011;53.362;58.948;2023-04-26T00:56:57;97548.69;;;9.56;49.69
49943;BME280;36011;53.362;58.948;2023-04-26T01:00:02;97558.88;;;9.44;49.57
49943;BME280;36011;53.362;58.948;2023-04-26T01:03:09;97565.38;;;9.37;49.56
49943;BME280;36011;53.362;58.948;2023-04-26T01:06:14;97560.28;;;9.34;49.70
49943;BME280;36011;53.362;58.948;2023-04-26T01:09:18;97570.00;;;9.32;49.73
49943;BME280;36011;53.362;58.948;2023-04-26T01:12:22;97572.09;;;9.26;48.94
49943;BME280;36011;53.362;58.948;2023-04-26T01:15:28;97575.47;;;9.28;49.52
49943;BME280;36011;53.362;58.948;2023-04-26T01:18:35;97562.19;;;9.31;49.64
49943;BME280;36011;53.362;58.948;2023-04-26T01:21:41;97567.53;;;9.29;49.79
49943;BME280;36011;53.362;58.948;2023-04-26T01:24:49;97570.22;;;9.28;49.97
49943;BME280;36011;53.362;58.948;2023-04-26T01:27:55;97564.91;;;9.29;49.70
49943;BME280;36011;53.362;58.948;2023-04-26T01:30:59;97555.41;;;9.44;49.72
49943;BME280;36011;53.362;58.948;2023-04-26T01:34:03;97562.19;;;9.48;49.26
49943;BME280;36011;53.362;58.948;2023-04-26T01:37:08;97558.81;;;9.46;48.99
49943;BME280;36011;53.362;58.948;2023-04-26T01:40:13;97561.34;;;9.48;49.02
49943;BME280;36011;53.362;58.948;2023-04-26T01:43:18;97566.44;;;9.51;48.76
49943;BME280;36011;53.362;58.948;2023-04-26T01:46:24;97560.53;;;9.64;48.90
49943;BME280;36011;53.362;58.948;2023-04-26T01:49:29;97566.34;;;9.71;48.67
49943;BME280;36011;53.362;58.948;2023-04-26T01:52:34;97568.81;;;9.74;48.50
49943;BME280;36011;53.362;58.948;2023-04-26T01:55:39;97570.28;;;9.80;48.55
49943;BME280;36011;53.362;58.948;2023-04-26T01:58:45;97579.31;;;9.92;48.41
49943;BME280;36011;53.362;58.948;2023-04-26T02:01:50;97567.84;;;9.93;48.26
49943;BME280;36011;53.362;58.948;2023-04-26T02:04:54;97573.13;;;9.93;48.21
49943;BME280;36011;53.362;58.948;2023-04-26T02:07:59;97569.41;;;9.97;48.25
49943;BME280;36011;53.362;58.948;2023-04-26T02:11:04;97570.00;;;10.02;48.03
49943;BME280;36011;53.362;58.948;2023-04-26T02:14:07;97563.00;;;10.02;47.76
49943;BME280;36011;53.362;58.948;2023-04-26T02:17:12;97565.38;;;10.07;47.70
49943;BME280;36011;53.362;58.948;2023-04-26T02:20:18;97561.41;;;10.16;47.82
49943;BME280;36011;53.362;58.948;2023-04-26T02:23:23;97554.22;;;10.19;47.78
49943;BME280;36011;53.362;58.948;2023-04-26T02:26:28;97554.75;;;10.26;47.51
49943;BME280;36011;53.362;58.948;2023-04-26T02:29:35;97563.72;;;10.39;47.52
49943;BME280;36011;53.362;58.948;2023-04-26T02:32:40;97567.72;;;10.46;47.36
49943;BME280;36011;53.362;58.948;2023-04-26T02:35:44;97559.59;;;10.51;47.28
49943;BME280;36011;53.362;58.948;2023-04-26T02:38:51;97564.34;;;10.60;47.09
49943;BME280;36011;53.362;58.948;2023-04-26T02:41:56;97555.22;;;10.67;46.91
49943;BME280;36011;53.362;58.948;2023-04-26T02:45:02;97558.09;;;10.78;46.86
49943;BME280;36011;53.362;58.948;2023-04-26T02:48:08;97565.22;;;10.92;46.49
49943;BME280;36011;53.362;58.948;2023-04-26T02:51:11;97557.75;;;11.00;46.29
49943;BME280;36011;53.362;58.948;2023-04-26T02:54:15;97553.00;;;11.07;46.11
49943;BME280;36011;53.362;58.948;2023-04-26T02:57:20;97547.03;;;11.19;46.00
49943;BME280;36011;53.362;58.948;2023-04-26T03:00:25;97545.31;;;11.34;45.65
49943;BME280;36011;53.362;58.948;2023-04-26T03:03:30;97542.56;;;11.52;45.05
49943;BME280;36011;53.362;58.948;2023-04-26T03:06:35;97553.66;;;11.73;44.69
49943;BME280;36011;53.362;58.948;2023-04-26T03:09:40;97547.22;;;11.93;44.52
49943;BME280;36011;53.362;58.948;2023-04-26T03:12:44;97544.69;;;12.20;43.89
49943;BME280;36011;53.362;58.948;2023-04-26T03:15:48;97540.00;;;12.39;43.42
49943;BME280;36011;53.362;58.948;2023-04-26T03:18:55;97535.19;;;12.74;42.84
49943;BME280;36011;53.362;58.948;2023-04-26T03:22:03;97539.59;;;13.15;42.07
49943;BME280;36011;53.362;58.948;2023-04-26T03:25:09;97543.06;;;13.30;41.54
49943;BME280;36011;53.362;58.948;2023-04-26T03:28:14;97542.44;;;13.54;41.36
49943;BME280;36011;53.362;58.948;2023-04-26T03:31:19;97543.56;;;13.89;40.52
49943;BME280;36011;53.362;58.948;2023-04-26T03:34:25;97544.13;;;14.33;39.69
49943;BME280;36011;53.362;58.948;2023-04-26T03:37:29;97544.19;;;14.82;38.57
49943;BME280;36011;53.362;58.948;2023-04-26T03:40:35;97534.06;;;15.37;37.37
49943;BME280;36011;53.362;58.948;2023-04-26T03:43:40;97542.06;;;15.73;36.81
49943;BME280;36011;53.362;58.948;2023-04-26T03:46:45;97545.81;;;16.16;34.62
49943;BME280;36011;53.362;58.948;2023-04-26T03:49:51;97545.13;;;16.48;33.90
49943;BME280;36011;53.362;58.948;2023-04-26T03:52:58;97540.91;;;16.91;32.77
49943;BME280;36011;53.362;58.948;2023-04-26T03:56:03;97543.66;;;17.12;32.17
49943;BME280;36011;53.362;58.948;2023-04-26T03:59:08;97549.09;;;17.21;31.76
49943;BME280;36011;53.362;58.948;2023-04-26T04:02:14;97542.69;;;17.24;31.57
49943;BME280;36011;53.362;58.948;2023-04-26T04:05:19;97542.63;;;17.35;31.72
49943;BME280;36011;53.362;58.948;2023-04-26T04:08:24;97526.63;;;17.46;31.54
49943;BME280;36011;53.362;58.948;2023-04-26T04:11:29;97532.00;;;17.67;31.23
49943;BME280;36011;53.362;58.948;2023-04-26T04:14:34;97532.03;;;17.88;30.97
49943;BME280;36011;53.362;58.948;2023-04-26T04:17:38;97529.97;;;18.13;30.47
49943;BME280;36011;53.362;58.948;2023-04-26T04:20:47;97515.75;;;18.24;30.16
49943;BME280;36011;53.362;58.948;2023-04-26T04:23:52;97547.13;;;18.20;29.93
49943;BME280;36011;53.362;58.948;2023-04-26T04:26:57;97545.63;;;18.27;29.31
49943;BME280;36011;53.362;58.948;2023-04-26T04:30:00;97526.06;;;18.17;29.00
49943;BME280;36011;53.362;58.948;2023-04-26T04:33:11;97531.31;;;18.28;28.55
49943;BME280;36011;53.362;58.948;2023-04-26T04:36:15;97513.13;;;18.64;27.55
49943;BME280;36011;53.362;58.948;2023-04-26T04:39:21;97503.03;;;18.58;27.83
49943;BME280;36011;53.362;58.948;2023-04-26T04:42:26;97517.84;;;18.51;27.84
49943;BME280;36011;53.362;58.948;2023-04-26T04:45:31;97510.59;;;18.62;27.63
49943;BME280;36011;53.362;58.948;2023-04-26T04:48:35;97512.75;;;18.69;27.56
49943;BME280;36011;53.362;58.948;2023-04-26T04:51:42;97513.78;;;18.77;27.94
49943;BME280;36011;53.362;58.948;2023-04-26T04:54:47;97511.59;;;18.92;27.06
49943;BME280;36011;53.362;58.948;2023-04-26T04:57:51;97510.88;;;18.59;27.50
49943;BME280;36011;53.362;58.948;2023-04-26T05:00:54;97509.44;;;18.46;28.19
49943;BME280;36011;53.362;58.948;2023-04-26T05:03:59;97497.59;;;18.38;27.80
49943;BME280;36011;53.362;58.948;2023-04-26T05:07:08;97495.28;;;18.24;28.24
49943;BME280;36011;53.362;58.948;2023-04-26T05:10:15;97511.72;;;18.60;27.78
49943;BME280;36011;53.362;58.948;2023-04-26T05:13:20;97523.41;;;18.69;27.62
49943;BME280;36011;53.362;58.948;2023-04-26T05:16:26;97512.31;;;18.73;27.59
49943;BME280;36011;53.362;58.948;2023-04-26T05:19:32;97500.53;;;18.97;27.13
49943;BME280;36011;53.362;58.948;2023-04-26T05:22:35;97503.19;;;19.16;26.90
49943;BME280;36011;53.362;58.948;2023-04-26T05:25:39;97497.75;;;19.27;27.04
49943;BME280;36011;53.362;58.948;2023-04-26T05:28:44;97497.34;;;19.22;27.01
49943;BME280;36011;53.362;58.948;2023-04-26T05:31:50;97516.69;;;19.24;26.89
49943;BME280;36011;53.362;58.948;2023-04-26T05:34:55;97497.53;;;18.90;27.19
49943;BME280;36011;53.362;58.948;2023-04-26T05:37:59;97502.59;;;18.93;26.79
49943;BME280;36011;53.362;58.948;2023-04-26T05:41:04;97491.13;;;19.02;26.37
49943;BME280;36011;53.362;58.948;2023-04-26T05:44:09;97486.03;;;18.80;26.54
49943;BME280;36011;53.362;58.948;2023-04-26T05:47:15;97491.53;;;18.67;26.72
49943;BME280;36011;53.362;58.948;2023-04-26T05:50:20;97479.56;;;18.82;26.55
49943;BME280;36011;53.362;58.948;2023-04-26T05:53:23;97481.66;;;18.79;26.62
49943;BME280;36011;53.362;58.948;2023-04-26T05:56:28;97480.97;;;18.87;26.36
49943;BME280;36011;53.362;58.948;2023-04-26T05:59:37;97470.91;;;19.00;25.99
49943;BME280;36011;53.362;58.948;2023-04-26T06:02:41;97465.84;;;19.06;25.54
49943;BME280;36011;53.362;58.948;2023-04-26T06:05:45;97463.19;;;19.16;25.37
49943;BME280;36011;53.362;58.948;2023-04-26T06:08:50;97470.13;;;19.48;25.10
49943;BME280;36011;53.362;58.948;2023-04-26T06:11:55;97476.59;;;19.74;24.22
49943;BME280;36011;53.362;58.948;2023-04-26T06:14:59;97463.50;;;19.91;24.11
49943;BME280;36011;53.362;58.948;2023-04-26T06:18:05;97461.78;;;20.00;23.61
49943;BME280;36011;53.362;58.948;2023-04-26T06:21:09;97465.31;;;19.81;23.48
49943;BME280;36011;53.362;58.948;2023-04-26T06:24:15;97458.59;;;19.77;22.63
49943;BME280;36011;53.362;58.948;2023-04-26T06:27:18;97460.84;;;19.62;22.53
49943;BME280;36011;53.362;58.948;2023-04-26T06:30:23;97447.06;;;19.57;22.37
49943;BME280;36011;53.362;58.948;2023-04-26T06:33:28;97455.63;;;19.41;22.18
49943;BME280;36011;53.362;58.948;2023-04-26T06:36:33;97463.06;;;19.47;21.52
49943;BME280;36011;53.362;58.948;2023-04-26T06:39:38;97458.28;;;19.60;21.55
49943;BME280;36011;53.362;58.948;2023-04-26T06:42:42;97451.00;;;19.62;21.38
49943;BME280;36011;53.362;58.948;2023-04-26T06:45:46;97451.28;;;19.69;21.10
49943;BME280;36011;53.362;58.948;2023-04-26T06:48:52;97462.81;;;19.79;21.24
49943;BME280;36011;53.362;58.948;2023-04-26T06:51:57;97468.13;;;19.99;20.38
49943;BME280;36011;53.362;58.948;2023-04-26T06:55:02;97443.22;;;19.98;20.26
49943;BME280;36011;53.362;58.948;2023-04-26T06:58:08;97446.13;;;20.14;20.16
49943;BME280;36011;53.362;58.948;2023-04-26T07:01:11;97458.22;;;20.18;19.33
49943;BME280;36011;53.362;58.948;2023-04-26T07:04:18;97441.31;;;20.28;19.33
49943;BME280;36011;53.362;58.948;2023-04-26T07:07:24;97436.00;;;20.18;19.63
49943;BME280;36011;53.362;58.948;2023-04-26T07:10:29;97433.78;;;20.13;19.80
49943;BME280;36011;53.362;58.948;2023-04-26T07:13:36;97436.69;;;20.20;19.96
49943;BME280;36011;53.362;58.948;2023-04-26T07:16:44;97418.50;;;20.33;19.67
49943;BME280;36011;53.362;58.948;2023-04-26T07:19:47;97424.75;;;20.61;19.69
49943;BME280;36011;53.362;58.948;2023-04-26T07:22:52;97426.94;;;20.66;19.09
49943;BME280;36011;53.362;58.948;2023-04-26T07:25:57;97421.69;;;20.74;19.09
49943;BME280;36011;53.362;58.948;2023-04-26T07:29:01;97421.75;;;21.10;18.87
49943;BME280;36011;53.362;58.948;2023-04-26T07:32:06;97403.25;;;21.35;18.93
49943;BME280;36011;53.362;58.948;2023-04-26T07:35:11;97418.06;;;21.65;18.36
49943;BME280;36011;53.362;58.948;2023-04-26T07:38:18;97392.44;;;21.80;18.21
49943;BME280;36011;53.362;58.948;2023-04-26T07:41:25;97384.19;;;22.08;17.94
49943;BME280;36011;53.362;58.948;2023-04-26T07:44:29;97384.66;;;22.21;17.82
49943;BME280;36011;53.362;58.948;2023-04-26T07:47:36;97381.53;;;22.84;17.40
49943;BME280;36011;53.362;58.948;2023-04-26T07:50:40;97374.91;;;23.29;17.07
49943;BME280;36011;53.362;58.948;2023-04-26T07:53:44;97377.59;;;23.05;16.33
49943;BME280;36011;53.362;58.948;2023-04-26T07:56:49;97363.38;;;22.70;16.29
49943;BME280;36011;53.362;58.948;2023-04-26T07:59:53;97372.94;;;22.30;16.57
49943;BME280;36011;53.362;58.948;2023-04-26T08:02:56;97357.69;;;21.96;16.63
49943;BME280;36011;53.362;58.948;2023-04-26T08:06:00;97360.91;;;21.74;16.86
49943;BME280;36011;53.362;58.948;2023-04-26T08:09:06;97351.97;;;21.91;16.71
49943;BME280;36011;53.362;58.948;2023-04-26T08:12:11;97346.88;;;21.80;17.03
49943;BME280;36011;53.362;58.948;2023-04-26T08:15:16;97348.69;;;21.80;17.13
49943;BME280;36011;53.362;58.948;2023-04-26T08:18:21;97330.22;;;21.94;17.25
49943;BME280;36011;53.362;58.948;2023-04-26T08:21:25;97317.47;;;21.88;16.84
49943;BME280;36011;53.362;58.948;2023-04-26T08:24:32;97301.19;;;21.82;16.70
49943;BME280;36011;53.362;58.948;2023-04-26T08:27:36;97325.34;;;21.90;16.50
49943;BME280;36011;53.362;58.948;2023-04-26T08:30:40;97336.91;;;22.25;16.58
49943;BME280;36011;53.362;58.948;2023-04-26T08:33:45;97309.38;;;22.57;16.23
49943;BME280;36011;53.362;58.948;2023-04-26T08:36:52;97292.25;;;22.50;16.25
49943;BME280;36011;53.362;58.948;2023-04-26T08:39:56;97285.25;;;22.65;16.23
49943;BME280;36011;53.362;58.948;2023-04-26T08:43:01;97298.13;;;22.45;16.55
49943;BME280;36011;53.362;58.948;2023-04-26T08:46:09;97312.72;;;22.59;16.03
49943;BME280;36011;53.362;58.948;2023-04-26T08:52:35;97299.63;;;22.48;16.14
49943;BME280;36011;53.362;58.948;2023-04-26T08:55:40;97300.28;;;22.41;16.43
49943;BME280;36011;53.362;58.948;2023-04-26T08:58:45;97283.44;;;23.39;15.60
49943;BME280;36011;53.362;58.948;2023-04-26T09:01:49;97288.81;;;24.11;14.93
49943;BME280;36011;53.362;58.948;2023-04-26T09:04:56;97304.38;;;23.85;14.63
49943;BME280;36011;53.362;58.948;2023-04-26T09:08:01;97283.25;;;23.41;15.09
49943;BME280;36011;53.362;58.948;2023-04-26T09:11:10;97294.34;;;23.46;15.00
49943;BME280;36011;53.362;58.948;2023-04-26T09:14:15;97298.59;;;24.04;14.82
49943;BME280;36011;53.362;58.948;2023-04-26T09:17:31;97280.34;;;24.85;14.00
49943;BME280;36011;53.362;58.948;2023-04-26T09:20:37;97274.84;;;26.22;13.04
49943;BME280;36011;53.362;58.948;2023-04-26T09:24:18;97267.16;;;26.55;13.14
49943;BME280;36011;53.362;58.948;2023-04-26T09:27:38;97271.78;;;26.61;13.07
49943;BME280;36011;53.362;58.948;2023-04-26T09:30:43;97310.72;;;27.81;12.03
49943;BME280;36011;53.362;58.948;2023-04-26T09:33:57;97303.06;;;28.26;11.76
49943;BME280;36011;53.362;58.948;2023-04-26T09:37:04;97282.25;;;28.19;11.73
49943;BME280;36011;53.362;58.948;2023-04-26T09:40:19;97254.72;;;26.75;12.53
49943;BME280;36011;53.362;58.948;2023-04-26T09:43:26;97296.63;;;25.52;13.16
49943;BME280;36011;53.362;58.948;2023-04-26T09:46:30;97271.84;;;24.96;13.14
49943;BME280;36011;53.362;58.948;2023-04-26T09:49:47;97256.41;;;24.90;13.51
49943;BME280;36011;53.362;58.948;2023-04-26T09:52:52;97290.34;;;25.60;13.16
49943;BME280;36011;53.362;58.948;2023-04-26T09:56:08;97273.31;;;26.34;12.74
49943;BME280;36011;53.362;58.948;2023-04-26T09:59:12;97243.41;;;26.14;12.83
49943;BME280;36011;53.362;58.948;2023-04-26T10:02:23;97235.28;;;27.08;12.16
49943;BME280;36011;53.362;58.948;2023-04-26T10:05:28;97260.88;;;27.68;11.77
49943;BME280;36011;53.362;58.948;2023-04-26T10:08:36;97263.41;;;27.98;11.61
49943;BME280;36011;53.362;58.948;2023-04-26T10:11:40;97257.09;;;27.91;11.71
49943;BME280;36011;53.362;58.948;2023-04-26T10:14:47;97251.25;;;28.29;11.71
49943;BME280;36011;53.362;58.948;2023-04-26T10:17:51;97265.28;;;27.69;11.79
49943;BME280;36011;53.362;58.948;2023-04-26T10:20:58;97221.81;;;27.15;12.31
49943;BME280;36011;53.362;58.948;2023-04-26T10:24:03;97231.63;;;27.16;12.17
49943;BME280;36011;53.362;58.948;2023-04-26T10:27:08;97215.28;;;27.87;11.83
49943;BME280;36011;53.362;58.948;2023-04-26T10:30:16;97218.28;;;27.70;11.84
49943;BME280;36011;53.362;58.948;2023-04-26T10:33:22;97209.66;;;27.53;12.48
49943;BME280;36011;53.362;58.948;2023-04-26T10:36:27;97206.44;;;27.71;12.36
49943;BME280;36011;53.362;58.948;2023-04-26T10:39:31;97229.50;;;27.67;12.34
49943;BME280;36011;53.362;58.948;2023-04-26T10:42:36;97217.28;;;27.43;12.51
49943;BME280;36011;53.362;58.948;2023-04-26T10:45:45;97200.31;;;27.56;12.70
49943;BME280;36011;53.362;58.948;2023-04-26T10:48:52;97236.91;;;27.52;12.93
49943;BME280;36011;53.362;58.948;2023-04-26T10:52:18;97212.41;;;27.04;13.49
49943;BME280;36011;53.362;58.948;2023-04-26T10:55:42;97196.63;;;26.07;14.34
49943;BME280;36011;53.362;58.948;2023-04-26T10:58:49;97185.16;;;25.53;14.59
49943;BME280;36011;53.362;58.948;2023-04-26T11:02:11;97188.56;;;25.18;14.86
49943;BME280;36011;53.362;58.948;2023-04-26T11:05:36;97208.59;;;24.54;15.50
49943;BME280;36011;53.362;58.948;2023-04-26T11:08:44;97173.78;;;24.76;15.78
49943;BME280;36011;53.362;58.948;2023-04-26T11:12:29;97189.19;;;24.82;15.43
49943;BME280;36011;53.362;58.948;2023-04-26T11:15:45;97189.34;;;24.34;16.13
49943;BME280;36011;53.362;58.948;2023-04-26T11:20:08;97197.63;;;24.33;16.45
49943;BME280;36011;53.362;58.948;2023-04-26T11:23:39;97164.19;;;24.58;16.39
49943;BME280;36011;53.362;58.948;2023-04-26T11:27:22;97182.53;;;24.55;16.66
49943;BME280;36011;53.362;58.948;2023-04-26T11:31:14;97190.00;;;24.68;17.12
49943;BME280;36011;53.362;58.948;2023-04-26T11:34:38;97177.41;;;24.37;17.54
49943;BME280;36011;53.362;58.948;2023-04-26T11:38:02;97186.78;;;24.18;17.42
49943;BME280;36011;53.362;58.948;2023-04-26T11:41:08;97163.53;;;24.02;17.90
49943;BME280;36011;53.362;58.948;2023-04-26T11:44:21;97167.53;;;24.60;17.34
49943;BME280;36011;53.362;58.948;2023-04-26T11:47:27;97158.72;;;24.67;17.36
49943;BME280;36011;53.362;58.948;2023-04-26T11:50:37;97143.69;;;24.57;17.17
49943;BME280;36011;53.362;58.948;2023-04-26T11:53:41;97136.91;;;24.61;17.53
49943;BME280;36011;53.362;58.948;2023-04-26T11:56:47;97151.91;;;24.56;17.75
49943;BME280;36011;53.362;58.948;2023-04-26T12:00:05;97116.59;;;24.74;17.63
49943;BME280;36011;53.362;58.948;2023-04-26T12:03:16;97121.28;;;24.80;17.40
49943;BME280;36011;53.362;58.948;2023-04-26T12:06:42;97136.75;;;24.78;16.95
49943;BME280;36011;53.362;58.948;2023-04-26T12:09:47;97114.00;;;24.65;17.45
49943;BME280;36011;53.362;58.948;2023-04-26T12:12:57;97122.16;;;24.57;17.14
49943;BME280;36011;53.362;58.948;2023-04-26T12:16:11;97118.81;;;24.55;16.79
49943;BME280;36011;53.362;58.948;2023-04-26T12:19:40;97113.78;;;24.52;16.95
49943;BME280;36011;53.362;58.948;2023-04-26T12:22:57;97116.03;;;24.63;16.95
49943;BME280;36011;53.362;58.948;2023-04-26T12:26:05;97079.22;;;24.41;17.63
49943;BME280;36011;53.362;58.948;2023-04-26T12:29:11;97079.59;;;24.38;17.71
49943;BME280;36011;53.362;58.948;2023-04-26T12:32:16;97066.31;;;24.36;17.24
49943;BME280;36011;53.362;58.948;2023-04-26T12:35:20;97077.09;;;24.13;17.62
49943;BME280;36011;53.362;58.948;2023-04-26T12:38:24;97088.72;;;23.83;17.62
49943;BME280;36011;53.362;58.948;2023-04-26T12:41:27;97099.91;;;23.55;17.75
49943;BME280;36011;53.362;58.948;2023-04-26T12:44:31;97075.88;;;23.30;18.20
49943;BME280;36011;53.362;58.948;2023-04-26T12:47:35;97068.50;;;23.33;18.39
49943;BME280;36011;53.362;58.948;2023-04-26T12:50:40;97054.84;;;23.42;18.37
49943;BME280;36011;53.362;58.948;2023-04-26T12:53:44;97066.66;;;23.64;18.31
49943;BME280;36011;53.362;58.948;2023-04-26T12:56:50;97075.09;;;23.53;18.41
49943;BME280;36011;53.362;58.948;2023-04-26T12:59:56;97065.31;;;23.60;17.97
49943;BME280;36011;53.362;58.948;2023-04-26T13:03:00;97093.63;;;23.40;18.19
49943;BME280;36011;53.362;58.948;2023-04-26T13:06:05;97062.84;;;23.19;18.16
49943;BME280;36011;53.362;58.948;2023-04-26T13:09:10;97074.31;;;22.97;18.70
49943;BME280;36011;53.362;58.948;2023-04-26T13:12:18;97073.00;;;22.76;19.51
49943;BME280;36011;53.362;58.948;2023-04-26T13:15:24;97044.00;;;22.72;19.52
49943;BME280;36011;53.362;58.948;2023-04-26T13:18:30;97083.41;;;22.63;19.50
49943;BME280;36011;53.362;58.948;2023-04-26T13:21:33;97071.03;;;22.54;19.77
49943;BME280;36011;53.362;58.948;2023-04-26T13:24:39;97067.34;;;22.30;19.94
49943;BME280;36011;53.362;58.948;2023-04-26T13:27:44;97047.25;;;22.34;20.02
49943;BME280;36011;53.362;58.948;2023-04-26T13:30:49;97070.03;;;22.22;20.11
49943;BME280;36011;53.362;58.948;2023-04-26T13:33:54;97053.41;;;22.02;20.41
49943;BME280;36011;53.362;58.948;2023-04-26T13:37:00;97062.47;;;22.01;20.60
49943;BME280;36011;53.362;58.948;2023-04-26T13:40:06;97052.56;;;21.85;20.71
49943;BME280;36011;53.362;58.948;2023-04-26T13:43:10;97042.19;;;22.07;20.54
49943;BME280;36011;53.362;58.948;2023-04-26T13:46:13;97058.78;;;21.86;20.57
49943;BME280;36011;53.362;58.948;2023-04-26T13:49:18;97038.00;;;21.80;20.65
49943;BME280;36011;53.362;58.948;2023-04-26T13:52:24;97055.25;;;21.77;20.92
49943;BME280;36011;53.362;58.948;2023-04-26T13:55:28;97041.66;;;21.62;21.04
49943;BME280;36011;53.362;58.948;2023-04-26T13:58:32;97026.91;;;21.50;21.30
49943;BME280;36011;53.362;58.948;2023-04-26T14:01:36;97024.69;;;21.37;21.51
49943;BME280;36011;53.362;58.948;2023-04-26T14:04:40;97005.56;;;21.24;21.61
49943;BME280;36011;53.362;58.948;2023-04-26T14:07:45;97010.91;;;21.16;21.73
49943;BME280;36011;53.362;58.948;2023-04-26T14:10:48;97008.50;;;21.04;21.75
49943;BME280;36011;53.362;58.948;2023-04-26T14:13:57;97003.47;;;20.93;22.24
49943;BME280;36011;53.362;58.948;2023-04-26T14:17:02;97012.66;;;20.99;22.29
49943;BME280;36011;53.362;58.948;2023-04-26T14:20:06;97005.50;;;21.07;22.00
49943;BME280;36011;53.362;58.948;2023-04-26T14:23:11;97015.16;;;21.00;22.28
49943;BME280;36011;53.362;58.948;2023-04-26T14:26:16;97000.75;;;20.85;22.21
49943;BME280;36011;53.362;58.948;2023-04-26T14:29:21;96994.38;;;20.78;22.60
49943;BME280;36011;53.362;58.948;2023-04-26T14:32:28;97001.03;;;20.74;22.33
49943;BME280;36011;53.362;58.948;2023-04-26T14:35:33;97007.16;;;20.66;22.30
49943;BME280;36011;53.362;58.948;2023-04-26T14:38:41;97023.31;;;20.56;22.72
49943;BME280;36011;53.362;58.948;2023-04-26T14:41:46;97014.09;;;20.25;22.68
49943;BME280;36011;53.362;58.948;2023-04-26T14:44:49;97008.94;;;20.05;22.68
49943;BME280;36011;53.362;58.948;2023-04-26T14:47:54;97008.47;;;19.92;22.65
49943;BME280;36011;53.362;58.948;2023-04-26T14:51:23;97002.44;;;19.90;22.36
49943;BME280;36011;53.362;58.948;2023-04-26T14:54:36;97013.22;;;19.62;22.35
49943;BME280;36011;53.362;58.948;2023-04-26T14:57:41;97001.88;;;19.33;22.60
49943;BME280;36011;53.362;58.948;2023-04-26T15:00:45;97016.28;;;19.22;22.77
49943;BME280;36011;53.362;58.948;2023-04-26T15:03:49;97019.72;;;19.14;22.82
49943;BME280;36011;53.362;58.948;2023-04-26T15:06:53;97011.84;;;19.13;22.77
49943;BME280;36011;53.362;58.948;2023-04-26T15:10:00;97009.91;;;19.05;22.66
49943;BME280;36011;53.362;58.948;2023-04-26T15:13:03;97014.97;;;18.80;23.14
49943;BME280;36011;53.362;58.948;2023-04-26T15:16:09;97020.03;;;18.74;22.82
49943;BME280;36011;53.362;58.948;2023-04-26T15:19:15;97024.09;;;18.78;22.81
49943;BME280;36011;53.362;58.948;2023-04-26T15:22:20;97020.47;;;18.69;22.78
49943;BME280;36011;53.362;58.948;2023-04-26T15:25:25;97021.06;;;18.63;23.07
49943;BME280;36011;53.362;58.948;2023-04-26T15:28:29;97017.09;;;18.67;22.97
49943;BME280;36011;53.362;58.948;2023-04-26T15:31:31;97018.53;;;18.61;23.21
49943;BME280;36011;53.362;58.948;2023-04-26T15:34:39;97020.94;;;18.55;23.03
49943;BME280;36011;53.362;58.948;2023-04-26T15:37:46;97016.63;;;18.44;23.32
49943;BME280;36011;53.362;58.948;2023-04-26T15:40:52;97013.53;;;18.49;23.15
49943;BME280;36011;53.362;58.948;2023-04-26T15:43:57;97017.50;;;18.25;23.38
49943;BME280;36011;53.362;58.948;2023-04-26T15:47:04;97015.84;;;18.24;23.57
49943;BME280;36011;53.362;58.948;2023-04-26T15:50:09;97017.00;;;18.12;23.70
49943;BME280;36011;53.362;58.948;2023-04-26T15:53:14;97014.88;;;18.06;23.83
49943;BME280;36011;53.362;58.948;2023-04-26T15:56:19;97017.50;;;18.25;23.43
49943;BME280;36011;53.362;58.948;2023-04-26T15:59:24;97019.22;;;18.07;23.59
49943;BME280;36011;53.362;58.948;2023-04-26T16:02:28;97014.16;;;18.13;23.58
49943;BME280;36011;53.362;58.948;2023-04-26T16:05:32;97012.50;;;18.12;23.78
49943;BME280;36011;53.362;58.948;2023-04-26T16:08:51;97014.44;;;18.10;23.49
49943;BME280;36011;53.362;58.948;2023-04-26T16:11:56;97007.75;;;17.97;23.45
49943;BME280;36011;53.362;58.948;2023-04-26T16:15:02;97003.13;;;17.99;23.55
49943;BME280;36011;53.362;58.948;2023-04-26T16:18:08;97001.28;;;18.09;23.48
49943;BME280;36011;53.362;58.948;2023-04-26T16:21:13;96981.94;;;18.07;23.58